Alamosa, Colorado
Current Conditions -  °F | °C
As of 2:52 PM on Tuesday 21 Oct 2014 (Local Time) from KALS Reporting Station
Light Rain Light Rain  
Wind Chill: 56°   Ceiling: 6000
Heat Index: 56°   Visibility: 10mi
Dew Point: 42°   Wind: 3mph
Humidity: 60%   Direction: 260°W
Pressure: 30.13"   Gusts: NA
Location:  37.47°N, 105.87°W
Report Text: KALS 212052Z AUTO 26003KT 10SM -RA BKN060 OVC080 13/06 A3013 RMK AO2 RAB27 SLP151 P0001 60001 T01330056 56020
Loading
Personal Weather Stations






























Interactive Weather Map New forecast layout! Learn more

10-Day Weather Forecast

Advertisements
Track Severe Weather on mobile